createdAt,value
2023-03-20T00:01:12.756Z,12.60
2023-03-20T00:03:43.347Z,12.70
2023-03-20T00:06:19.272Z,12.50
2023-03-20T00:09:08.705Z,12.60
2023-03-20T00:11:46.635Z,12.60
2023-03-20T00:14:19.094Z,12.40
2023-03-20T00:19:54.451Z,12.40
2023-03-20T00:22:26.108Z,12.50
2023-03-20T00:25:14.142Z,12.30
2023-03-20T00:27:45.129Z,12.10
2023-03-20T00:30:24.924Z,12.10
2023-03-20T00:32:56.245Z,12.20
2023-03-20T00:35:28.562Z,12.10
2023-03-20T00:38:01.431Z,12.10
2023-03-20T00:40:33.741Z,12.00
2023-03-20T00:43:05.458Z,12.10
2023-03-20T00:45:37.894Z,12.20
2023-03-20T00:51:04.576Z,11.80
2023-03-20T00:53:38.484Z,11.90
2023-03-20T00:56:09.742Z,11.70
2023-03-20T01:01:27.072Z,11.40
2023-03-20T01:03:56.993Z,11.40
2023-03-20T01:09:15.449Z,11.50
2023-03-20T01:12:04.612Z,11.60
2023-03-20T01:14:55.627Z,11.70
2023-03-20T01:17:26.460Z,11.70
2023-03-20T01:19:57.713Z,11.90
2023-03-20T01:22:27.640Z,11.70
2023-03-20T01:25:18.118Z,11.90
2023-03-20T01:27:51.635Z,11.80
2023-03-20T01:30:57.477Z,11.80
2023-03-20T01:33:28.424Z,11.70
2023-03-20T01:36:00.001Z,11.80
2023-03-20T01:38:30.906Z,11.80
2023-03-20T01:41:08.762Z,11.70
2023-03-20T01:43:41.169Z,11.80
2023-03-20T01:46:39.154Z,11.70
2023-03-20T01:49:54.120Z,11.60
2023-03-20T01:52:24.239Z,11.70
2023-03-20T01:54:54.783Z,11.80
2023-03-20T01:57:28.167Z,11.70
2023-03-20T02:00:05.361Z,11.60
2023-03-20T02:02:48.474Z,11.60
2023-03-20T02:05:48.185Z,11.60
2023-03-20T02:08:43.904Z,11.50
2023-03-20T02:11:15.160Z,11.50
2023-03-20T02:14:05.651Z,11.40
2023-03-20T02:16:44.454Z,11.50
2023-03-20T02:19:47.863Z,11.50
2023-03-20T02:22:54.572Z,11.60
2023-03-20T02:25:57.122Z,11.80
2023-03-20T02:29:34.417Z,11.60
2023-03-20T02:32:35.491Z,11.60
2023-03-20T02:35:46.387Z,11.40
2023-03-20T02:41:49.862Z,11.60
2023-03-20T02:44:26.939Z,11.50
2023-03-20T02:47:06.796Z,11.50
2023-03-20T02:49:51.870Z,11.60
2023-03-20T02:52:28.118Z,11.60
2023-03-20T02:55:13.091Z,11.60
2023-03-20T02:57:50.329Z,11.60
2023-03-20T03:03:22.777Z,11.70
2023-03-20T03:05:56.573Z,11.60
2023-03-20T03:08:31.952Z,11.80
2023-03-20T03:11:41.347Z,11.80
2023-03-20T03:14:21.148Z,11.70
2023-03-20T03:16:53.988Z,11.70
2023-03-20T03:19:28.725Z,11.70
2023-03-20T03:21:59.017Z,11.70
2023-03-20T03:24:48.503Z,11.70
2023-03-20T03:27:24.572Z,11.60
2023-03-20T03:29:58.366Z,11.50
2023-03-20T03:32:34.241Z,11.80
2023-03-20T03:35:07.410Z,11.60
2023-03-20T03:38:00.992Z,11.50
2023-03-20T03:40:37.552Z,11.50
2023-03-20T03:43:31.122Z,11.60
2023-03-20T03:46:07.656Z,11.50
2023-03-20T03:48:59.644Z,11.60
2023-03-20T03:52:09.769Z,11.50
2023-03-20T03:55:02.839Z,11.60
2023-03-20T03:57:39.874Z,11.70
2023-03-20T04:00:18.028Z,11.60
2023-03-20T04:02:52.754Z,11.80
2023-03-20T04:05:23.781Z,11.70
2023-03-20T04:08:12.132Z,11.40
2023-03-20T04:10:44.203Z,11.50
2023-03-20T04:13:14.134Z,11.50
2023-03-20T04:15:46.285Z,11.60
2023-03-20T04:18:18.769Z,11.50
2023-03-20T04:21:09.843Z,11.50
2023-03-20T04:23:40.297Z,11.40
2023-03-20T04:26:10.743Z,11.30
2023-03-20T04:28:58.676Z,11.30
2023-03-20T04:31:53.508Z,11.30
2023-03-20T04:41:22.862Z,11.00
2023-03-20T04:43:56.926Z,11.00
2023-03-20T04:46:44.654Z,10.90
2023-03-20T04:49:21.019Z,11.00
2023-03-20T04:51:51.575Z,10.80
2023-03-20T04:54:32.516Z,10.90
2023-03-20T04:57:02.311Z,11.00
2023-03-20T04:59:32.442Z,10.90
2023-03-20T05:02:02.470Z,11.10
2023-03-20T05:04:35.279Z,11.10
2023-03-20T05:07:05.656Z,11.10
2023-03-20T05:09:43.580Z,11.00
2023-03-20T05:15:13.296Z,11.00
2023-03-20T05:18:13.924Z,11.00
2023-03-20T05:20:56.364Z,11.20
2023-03-20T05:23:49.289Z,11.20
2023-03-20T05:26:38.560Z,11.20
2023-03-20T05:29:27.348Z,11.00
2023-03-20T05:32:17.288Z,11.00
2023-03-20T05:35:07.995Z,11.00
2023-03-20T05:37:53.278Z,11.00
2023-03-20T05:44:00.708Z,11.10
2023-03-20T05:46:57.039Z,11.20
2023-03-20T05:49:57.760Z,11.10
2023-03-20T05:53:01.571Z,11.00
2023-03-20T05:56:00.673Z,11.10
2023-03-20T05:58:43.784Z,11.40
2023-03-20T06:01:37.460Z,11.20
2023-03-20T06:04:26.246Z,11.40
2023-03-20T06:07:22.558Z,11.50
2023-03-20T06:10:03.724Z,11.50
2023-03-20T06:12:34.561Z,11.50
2023-03-20T06:15:05.191Z,11.40
2023-03-20T06:17:41.052Z,11.40
2023-03-20T06:20:13.431Z,11.60
2023-03-20T06:23:03.724Z,11.50
2023-03-20T06:25:35.986Z,11.40
2023-03-20T06:28:06.847Z,11.50
2023-03-20T06:30:36.923Z,11.60
2023-03-20T06:33:09.248Z,11.60
2023-03-20T06:35:57.215Z,11.80
2023-03-20T06:38:28.579Z,11.90
2023-03-20T06:41:00.651Z,11.90
2023-03-20T06:43:31.598Z,11.80
2023-03-20T06:46:02.738Z,11.80
2023-03-20T06:48:34.907Z,11.80
2023-03-20T06:51:09.660Z,11.90
2023-03-20T06:53:50.910Z,11.70
2023-03-20T06:56:26.263Z,11.70
2023-03-20T06:58:59.330Z,11.80
2023-03-20T07:01:29.397Z,11.60
2023-03-20T07:04:00.195Z,11.80
2023-03-20T07:06:39.122Z,11.70
2023-03-20T07:09:46.516Z,11.80
2023-03-20T07:12:38.446Z,11.70
2023-03-20T07:15:10.126Z,11.70
2023-03-20T07:17:41.054Z,11.80
2023-03-20T07:20:31.336Z,11.80
2023-03-20T07:23:01.852Z,11.90
2023-03-20T07:25:42.233Z,11.80
2023-03-20T07:28:33.011Z,11.80
2023-03-20T07:31:21.980Z,11.90
2023-03-20T07:33:56.924Z,11.90
2023-03-20T07:36:27.758Z,11.90
2023-03-20T07:38:57.860Z,11.90
2023-03-20T07:41:29.518Z,12.00
2023-03-20T07:44:08.649Z,11.90
2023-03-20T07:46:49.408Z,12.00
2023-03-20T07:49:20.179Z,12.00
2023-03-20T07:51:53.861Z,12.20
2023-03-20T07:54:25.736Z,12.10
2023-03-20T07:57:06.072Z,12.30
2023-03-20T07:59:37.828Z,12.40
2023-03-20T08:02:26.490Z,12.30
2023-03-20T08:04:57.416Z,12.40
2023-03-20T08:07:27.733Z,12.50
2023-03-20T08:10:16.198Z,12.60
2023-03-20T08:12:46.514Z,12.70
2023-03-20T08:15:18.165Z,12.90
2023-03-20T08:17:48.485Z,12.80
2023-03-20T08:20:20.473Z,12.70
2023-03-20T08:23:12.083Z,12.90
2023-03-20T08:26:00.523Z,13.00
2023-03-20T08:29:07.725Z,13.20
2023-03-20T08:31:39.732Z,13.00
2023-03-20T08:34:10.625Z,13.00
2023-03-20T08:36:41.556Z,13.20
2023-03-20T08:39:11.894Z,13.20
2023-03-20T08:41:44.255Z,13.20
2023-03-20T08:44:14.373Z,13.30
2023-03-20T08:46:47.039Z,13.10
2023-03-20T08:49:16.956Z,13.60
2023-03-20T08:51:53.847Z,13.70
2023-03-20T08:54:24.573Z,13.90
2023-03-20T08:56:58.169Z,14.00
2023-03-20T08:59:48.998Z,13.90
2023-03-20T09:07:03.693Z,14.10
2023-03-20T09:09:53.486Z,14.00
2023-03-20T09:13:09.576Z,14.30
2023-03-20T09:16:30.602Z,14.30
2023-03-20T09:19:25.780Z,14.60
2023-03-20T09:21:55.999Z,14.80
2023-03-20T09:24:26.092Z,14.70
2023-03-20T09:26:57.787Z,14.60
2023-03-20T09:29:27.676Z,14.50
2023-03-20T09:31:57.548Z,14.70
2023-03-20T09:34:27.721Z,14.50
2023-03-20T09:36:57.849Z,14.60
2023-03-20T09:39:28.373Z,14.50
2023-03-20T09:42:06.581Z,14.60
2023-03-20T09:44:48.063Z,14.50
2023-03-20T09:47:24.609Z,14.70
2023-03-20T09:50:07.051Z,14.80
2023-03-20T09:52:40.618Z,14.90
2023-03-20T09:55:16.630Z,14.90
2023-03-20T09:57:53.690Z,14.90
2023-03-20T10:00:26.862Z,14.90
2023-03-20T10:03:01.508Z,14.90
2023-03-20T10:05:36.918Z,15.10
2023-03-20T10:08:15.690Z,15.30
2023-03-20T10:10:53.539Z,15.40
2023-03-20T10:13:49.567Z,15.50
2023-03-20T10:16:27.719Z,15.60
2023-03-20T10:19:05.166Z,15.80
2023-03-20T10:21:43.992Z,15.90
2023-03-20T10:24:20.147Z,15.70
2023-03-20T10:26:54.366Z,15.80
2023-03-20T10:29:40.153Z,16.10
2023-03-20T10:32:19.183Z,16.10
2023-03-20T10:35:00.589Z,16.20
2023-03-20T10:37:41.748Z,16.60
2023-03-20T10:40:28.460Z,16.80
2023-03-20T10:43:03.286Z,17.40
2023-03-20T10:45:43.857Z,17.60
2023-03-20T10:48:23.286Z,18.30
2023-03-20T10:50:56.746Z,18.50
2023-03-20T10:53:32.823Z,18.20
2023-03-20T10:56:07.360Z,18.10
2023-03-20T10:58:41.507Z,18.60
2023-03-20T11:01:13.176Z,18.40
2023-03-20T11:03:44.122Z,18.40
2023-03-20T11:06:21.252Z,17.90
2023-03-20T11:08:54.853Z,17.90
2023-03-20T11:11:27.429Z,17.50
2023-03-20T11:13:59.093Z,17.70
2023-03-20T11:16:39.599Z,17.80
2023-03-20T11:19:12.744Z,17.40
2023-03-20T11:21:51.042Z,17.50
2023-03-20T11:24:37.877Z,17.60
2023-03-20T11:27:10.754Z,17.60
2023-03-20T11:29:44.428Z,17.80
2023-03-20T11:32:29.010Z,17.60
2023-03-20T11:35:00.046Z,17.80
2023-03-20T11:37:32.018Z,18.30
2023-03-20T11:40:09.402Z,19.20
2023-03-20T11:42:39.420Z,19.20
2023-03-20T11:45:18.437Z,19.40
2023-03-20T11:47:54.813Z,19.60
2023-03-20T11:50:32.298Z,19.90
2023-03-20T11:53:04.169Z,19.90
2023-03-20T11:55:36.027Z,20.10
2023-03-20T11:58:10.745Z,19.80
2023-03-20T12:00:43.342Z,19.20
2023-03-20T12:03:45.554Z,18.60
2023-03-20T12:06:21.054Z,18.70
2023-03-20T12:08:58.636Z,18.60
2023-03-20T12:11:45.546Z,18.20
2023-03-20T12:14:23.075Z,18.60
2023-03-20T12:16:58.615Z,19.70
2023-03-20T12:19:34.351Z,20.00
2023-03-20T12:22:09.897Z,20.70
2023-03-20T12:24:45.632Z,19.80
2023-03-20T12:27:30.098Z,20.60
2023-03-20T12:30:07.896Z,21.10
2023-03-20T12:32:43.705Z,21.00
2023-03-20T12:35:22.686Z,21.30
2023-03-20T12:37:52.692Z,21.40
2023-03-20T12:40:29.065Z,22.40
2023-03-20T12:43:07.115Z,22.50
2023-03-20T12:45:44.797Z,22.10
2023-03-20T12:48:50.919Z,22.20
2023-03-20T12:51:32.427Z,22.20
2023-03-20T12:54:15.776Z,22.70
2023-03-20T12:56:59.165Z,22.00
2023-03-20T12:59:37.181Z,20.40
2023-03-20T13:02:22.085Z,19.60
2023-03-20T13:05:16.534Z,19.10
2023-03-20T13:08:04.765Z,19.10
2023-03-20T13:10:41.238Z,19.20
2023-03-20T13:13:23.775Z,19.00
2023-03-20T13:16:06.091Z,18.60
2023-03-20T13:18:50.723Z,18.50
2023-03-20T13:21:31.379Z,18.60
2023-03-20T13:24:17.178Z,18.50
2023-03-20T13:26:58.440Z,18.80
2023-03-20T13:29:36.227Z,18.90
2023-03-20T13:32:16.920Z,18.80
2023-03-20T13:35:24.098Z,18.40
2023-03-20T13:37:59.034Z,18.20
2023-03-20T13:40:32.534Z,18.10
2023-03-20T13:43:11.036Z,18.40
2023-03-20T13:45:42.897Z,18.00
2023-03-20T13:48:26.441Z,18.00
2023-03-20T13:51:06.690Z,18.20
2023-03-20T13:53:46.149Z,18.10
2023-03-20T13:56:28.229Z,18.10
2023-03-20T13:59:33.053Z,18.30
2023-03-20T14:02:16.809Z,18.10
2023-03-20T14:04:48.153Z,17.90
2023-03-20T14:07:34.136Z,17.80
2023-03-20T14:10:39.136Z,17.70
2023-03-20T14:13:17.088Z,17.80
2023-03-20T14:15:58.253Z,17.90
2023-03-20T14:18:28.996Z,17.90
2023-03-20T14:21:02.714Z,18.10
2023-03-20T14:23:38.857Z,18.20
2023-03-20T14:26:12.425Z,18.10
2023-03-20T14:28:57.006Z,17.70
2023-03-20T14:31:31.528Z,17.40
2023-03-20T14:34:18.137Z,17.30
2023-03-20T14:36:54.498Z,17.10
2023-03-20T14:39:44.273Z,17.20
2023-03-20T14:42:26.713Z,17.30
2023-03-20T14:45:43.183Z,17.30
2023-03-20T14:48:30.417Z,17.30
2023-03-20T14:51:23.980Z,16.70
2023-03-20T14:53:59.733Z,16.90
2023-03-20T14:56:35.346Z,16.90
2023-03-20T14:59:07.746Z,16.80
2023-03-20T15:01:48.790Z,16.70
2023-03-20T15:04:38.617Z,16.90
2023-03-20T15:07:16.003Z,16.80
2023-03-20T15:09:47.964Z,16.90
2023-03-20T15:12:27.204Z,17.00
2023-03-20T15:15:04.389Z,16.60
2023-03-20T15:17:42.279Z,16.60
2023-03-20T15:20:18.435Z,16.90
2023-03-20T15:22:52.691Z,17.00
2023-03-20T15:25:26.149Z,16.60
2023-03-20T15:27:58.122Z,16.70
2023-03-20T15:30:30.487Z,16.80
2023-03-20T15:33:05.797Z,16.90
2023-03-20T15:35:39.224Z,16.90
2023-03-20T15:38:10.581Z,16.90
2023-03-20T15:40:50.516Z,16.60
2023-03-20T15:43:25.161Z,16.80
2023-03-20T15:46:16.757Z,16.80
2023-03-20T15:48:52.210Z,16.70
2023-03-20T15:51:29.711Z,17.20
2023-03-20T15:53:59.945Z,18.80
2023-03-20T15:56:34.544Z,18.90
2023-03-20T15:59:04.585Z,19.30
2023-03-20T16:01:35.968Z,19.60
2023-03-20T16:04:08.189Z,19.20
2023-03-20T16:06:46.732Z,19.50
2023-03-20T16:09:18.364Z,18.40
2023-03-20T16:11:54.014Z,18.30
2023-03-20T16:14:26.394Z,19.00
2023-03-20T16:16:58.263Z,19.30
2023-03-20T16:19:32.064Z,18.90
2023-03-20T16:22:05.055Z,18.80
2023-03-20T16:24:40.577Z,19.00
2023-03-20T16:27:18.398Z,19.10
2023-03-20T16:29:53.434Z,18.10
2023-03-20T16:32:34.762Z,18.00
2023-03-20T16:35:10.266Z,18.30
2023-03-20T16:37:45.172Z,18.30
2023-03-20T16:40:19.826Z,18.20
2023-03-20T16:42:50.835Z,18.00
2023-03-20T16:45:33.041Z,17.40
2023-03-20T16:48:32.159Z,17.30
2023-03-20T16:51:11.164Z,17.50
2023-03-20T16:53:46.718Z,17.40
2023-03-20T16:56:24.814Z,17.30
2023-03-20T16:58:56.912Z,17.20
2023-03-20T17:01:30.421Z,16.70
2023-03-20T17:04:13.377Z,16.40
2023-03-20T17:06:51.100Z,16.20
2023-03-20T17:09:25.212Z,16.30
2023-03-20T17:12:04.150Z,16.20
2023-03-20T17:14:34.658Z,16.20
2023-03-20T17:17:04.768Z,16.10
2023-03-20T17:19:38.690Z,15.90
2023-03-20T17:22:15.974Z,15.80
2023-03-20T17:24:45.687Z,15.60
2023-03-20T17:27:18.656Z,15.30
2023-03-20T17:29:50.740Z,15.20
2023-03-20T17:32:24.366Z,15.00
2023-03-20T17:34:54.561Z,14.90
2023-03-20T17:37:29.890Z,14.90
2023-03-20T17:40:01.779Z,14.80
2023-03-20T17:42:33.117Z,14.70
2023-03-20T17:45:05.074Z,14.60
2023-03-20T17:47:34.887Z,14.50
2023-03-20T17:50:04.798Z,14.40
2023-03-20T17:52:36.241Z,14.30
2023-03-20T17:55:06.575Z,14.30
2023-03-20T17:57:38.635Z,14.30
2023-03-20T18:00:12.436Z,14.30
2023-03-20T18:02:42.253Z,14.20
2023-03-20T18:05:12.938Z,14.20
2023-03-20T18:07:44.837Z,14.30
2023-03-20T18:10:22.652Z,14.30
2023-03-20T18:12:53.053Z,14.20
2023-03-20T18:15:23.099Z,14.20
2023-03-20T18:17:53.314Z,14.10
2023-03-20T18:20:27.844Z,14.10
2023-03-20T18:22:59.797Z,14.10
2023-03-20T18:25:30.640Z,13.80
2023-03-20T18:28:02.912Z,13.50
2023-03-20T18:30:35.370Z,13.70
2023-03-20T18:33:08.387Z,13.80
2023-03-20T18:35:39.249Z,13.80
2023-03-20T18:38:14.342Z,13.70
2023-03-20T18:40:51.729Z,13.80
2023-03-20T18:43:21.748Z,13.80
2023-03-20T18:45:52.380Z,13.90
2023-03-20T18:48:22.396Z,13.90
2023-03-20T18:50:52.917Z,13.80
2023-03-20T18:53:26.406Z,13.80
2023-03-20T18:55:56.638Z,13.80
2023-03-20T18:58:27.978Z,13.60
2023-03-20T19:01:00.045Z,13.60
2023-03-20T19:03:30.426Z,13.50
2023-03-20T19:06:00.723Z,13.50
2023-03-20T19:08:58.752Z,13.60
2023-03-20T19:11:32.162Z,13.60
2023-03-20T19:14:03.004Z,13.50
2023-03-20T19:16:38.589Z,13.50
2023-03-20T19:19:10.523Z,13.50
2023-03-20T19:21:40.821Z,13.50
2023-03-20T19:24:14.238Z,13.50
2023-03-20T19:26:47.024Z,13.60
2023-03-20T19:29:18.657Z,13.40
2023-03-20T19:31:48.508Z,13.50
2023-03-20T19:34:51.958Z,13.60
2023-03-20T19:37:08.367Z,13.60
2023-03-20T19:39:40.543Z,13.30
2023-03-20T19:42:38.869Z,13.20
2023-03-20T19:45:01.071Z,13.30
2023-03-20T19:47:31.122Z,13.00
2023-03-20T19:50:00.988Z,12.90
2023-03-20T19:52:34.697Z,12.80
2023-03-20T19:55:06.857Z,12.80
2023-03-20T19:57:36.764Z,12.90
2023-03-20T20:00:55.024Z,12.70
2023-03-20T20:02:59.379Z,12.50
2023-03-20T20:05:33.041Z,12.80
2023-03-20T20:08:28.012Z,12.90
2023-03-20T20:11:03.172Z,12.90
2023-03-20T20:13:47.083Z,12.80
2023-03-20T20:16:26.597Z,12.60
2023-03-20T20:18:57.072Z,12.40
2023-03-20T20:24:18.109Z,12.20
2023-03-20T20:27:00.032Z,12.10
2023-03-20T20:29:37.292Z,12.10
2023-03-20T20:32:07.743Z,12.20
2023-03-20T20:35:30.729Z,12.30
2023-03-20T20:38:10.337Z,12.20
2023-03-20T20:40:22.103Z,12.20
2023-03-20T20:42:56.304Z,12.30
2023-03-20T20:45:30.335Z,12.40
2023-03-20T20:48:02.092Z,12.20
2023-03-20T20:50:33.847Z,12.20
2023-03-20T20:53:08.578Z,12.10
2023-03-20T20:55:38.893Z,12.00
2023-03-20T20:58:10.871Z,11.90
2023-03-20T21:00:51.718Z,11.90
2023-03-20T21:03:23.583Z,12.00
2023-03-20T21:05:53.595Z,12.00
2023-03-20T21:08:26.496Z,11.80
2023-03-20T21:10:56.512Z,12.00
2023-03-20T21:13:28.065Z,12.20
2023-03-20T21:16:03.407Z,12.30
2023-03-20T21:18:35.502Z,12.30
2023-03-20T21:21:09.160Z,12.40
2023-03-20T21:23:40.308Z,12.40
2023-03-20T21:26:12.171Z,12.40
2023-03-20T21:28:43.716Z,12.40
2023-03-20T21:31:26.535Z,12.50
2023-03-20T21:33:58.308Z,12.50
2023-03-20T21:36:28.385Z,12.40
2023-03-20T21:39:13.679Z,12.40
2023-03-20T21:41:44.280Z,12.30
2023-03-20T21:44:24.609Z,12.10
2023-03-20T21:48:03.874Z,12.10
2023-03-20T21:50:45.969Z,12.10
2023-03-20T21:56:31.477Z,11.70
2023-03-20T22:01:53.248Z,11.60
2023-03-20T22:10:55.823Z,11.70
2023-03-20T22:16:16.546Z,11.70
2023-03-20T22:19:18.017Z,11.60
2023-03-20T22:21:55.952Z,11.30
2023-03-20T22:24:45.194Z,11.50
2023-03-20T22:30:41.964Z,11.40
2023-03-20T22:33:29.821Z,11.40
2023-03-20T22:36:17.910Z,11.50
2023-03-20T22:38:59.753Z,11.60
2023-03-20T22:42:06.713Z,11.60
2023-03-20T22:44:47.770Z,11.40
2023-03-20T22:46:47.944Z,11.30
2023-03-20T22:49:18.288Z,11.40
2023-03-20T22:52:11.219Z,11.40
2023-03-20T22:54:42.458Z,11.40
2023-03-20T22:57:12.256Z,11.40
2023-03-20T22:59:42.286Z,11.50
2023-03-20T23:02:12.204Z,11.40
2023-03-20T23:04:42.612Z,11.40
2023-03-20T23:07:14.183Z,11.40
2023-03-20T23:09:44.560Z,11.40
2023-03-20T23:12:15.227Z,11.60
2023-03-20T23:14:46.331Z,11.40
2023-03-20T23:17:17.017Z,11.30
2023-03-20T23:19:52.164Z,11.20
2023-03-20T23:22:28.007Z,11.00
2023-03-20T23:25:02.859Z,11.00
2023-03-20T23:27:39.812Z,10.90
2023-03-20T23:30:11.259Z,10.80
2023-03-20T23:32:43.118Z,10.90
2023-03-20T23:35:13.679Z,10.90
2023-03-20T23:37:46.636Z,10.90
2023-03-20T23:40:16.852Z,11.00
2023-03-20T23:42:47.074Z,10.90
2023-03-20T23:45:20.916Z,10.90
2023-03-20T23:47:52.084Z,11.00
2023-03-20T23:50:31.776Z,10.90
2023-03-20T23:53:17.501Z,10.90
2023-03-20T23:55:53.919Z,10.80
2023-03-20T23:58:28.451Z,10.70
